sensor_id;sensor_type;location;lat;lon;timestamp;pressure;altitude;pressure_sealevel;temperature;humidity
22753;BME280;11543;43.144;24.684;2024-03-08T00:00:17;99046.13;;;7.51;89.97
22753;BME280;11543;43.144;24.684;2024-03-08T00:02:46;99073.28;;;7.56;90.37
22753;BME280;11543;43.144;24.684;2024-03-08T00:05:14;99054.78;;;7.23;91.48
22753;BME280;11543;43.144;24.684;2024-03-08T00:07:43;99048.78;;;7.10;92.61
22753;BME280;11543;43.144;24.684;2024-03-08T00:10:10;99055.31;;;7.17;93.49
22753;BME280;11543;43.144;24.684;2024-03-08T00:12:39;99034.53;;;6.88;94.39
22753;BME280;11543;43.144;24.684;2024-03-08T00:15:17;99031.41;;;6.83;94.87
22753;BME280;11543;43.144;24.684;2024-03-08T00:17:46;99031.41;;;6.83;95.41
22753;BME280;11543;43.144;24.684;2024-03-08T00:23:12;99032.66;;;6.68;95.94
22753;BME280;11543;43.144;24.684;2024-03-08T00:28:28;99033.69;;;6.56;97.63
22753;BME280;11543;43.144;24.684;2024-03-08T00:30:59;99024.72;;;6.57;97.92
22753;BME280;11543;43.144;24.684;2024-03-08T00:33:25;99027.09;;;6.71;98.04
22753;BME280;11543;43.144;24.684;2024-03-08T00:35:54;99031.66;;;6.80;97.68
22753;BME280;11543;43.144;24.684;2024-03-08T00:38:32;99050.06;;;6.83;97.35
22753;BME280;11543;43.144;24.684;2024-03-08T00:41:08;99040.63;;;6.79;97.54
22753;BME280;11543;43.144;24.684;2024-03-08T00:43:33;99038.59;;;6.71;97.41
22753;BME280;11543;43.144;24.684;2024-03-08T00:45:59;99058.06;;;6.83;97.43
22753;BME280;11543;43.144;24.684;2024-03-08T00:48:25;99041.13;;;6.73;97.45
22753;BME280;11543;43.144;24.684;2024-03-08T00:50:51;99047.16;;;6.97;96.56
22753;BME280;11543;43.144;24.684;2024-03-08T00:53:21;99048.06;;;7.08;95.80
22753;BME280;11543;43.144;24.684;2024-03-08T00:55:49;99037.00;;;7.12;95.08
22753;BME280;11543;43.144;24.684;2024-03-08T00:58:36;99071.47;;;7.36;94.11
22753;BME280;11543;43.144;24.684;2024-03-08T01:01:25;99042.94;;;7.16;94.01
22753;BME280;11543;43.144;24.684;2024-03-08T01:04:06;99069.75;;;7.35;93.82
22753;BME280;11543;43.144;24.684;2024-03-08T01:06:52;99062.66;;;7.24;92.25
22753;BME280;11543;43.144;24.684;2024-03-08T01:09:17;99055.56;;;7.14;90.67
22753;BME280;11543;43.144;24.684;2024-03-08T01:15:19;99066.22;;;7.14;90.52
22753;BME280;11543;43.144;24.684;2024-03-08T01:17:53;99064.78;;;7.10;90.54
22753;BME280;11543;43.144;24.684;2024-03-08T01:20:39;99048.13;;;6.96;90.35
22753;BME280;11543;43.144;24.684;2024-03-08T01:23:06;99063.88;;;6.99;91.02
22753;BME280;11543;43.144;24.684;2024-03-08T01:25:33;99046.31;;;6.86;91.27
22753;BME280;11543;43.144;24.684;2024-03-08T01:28:33;99040.13;;;6.85;90.76
22753;BME280;11543;43.144;24.684;2024-03-08T01:31:19;99055.88;;;6.88;90.23
22753;BME280;11543;43.144;24.684;2024-03-08T01:34:12;99044.28;;;6.78;90.78
22753;BME280;11543;43.144;24.684;2024-03-08T01:36:51;99056.97;;;6.86;89.94
22753;BME280;11543;43.144;24.684;2024-03-08T01:39:19;99058.06;;;6.83;89.67
22753;BME280;11543;43.144;24.684;2024-03-08T01:41:54;99072.13;;;6.85;90.20
22753;BME280;11543;43.144;24.684;2024-03-08T01:44:50;99059.56;;;6.76;90.39
22753;BME280;11543;43.144;24.684;2024-03-08T01:47:26;99053.28;;;6.66;90.01
22753;BME280;11543;43.144;24.684;2024-03-08T01:49:52;99060.78;;;6.72;90.28
22753;BME280;11543;43.144;24.684;2024-03-08T01:52:18;99071.44;;;6.72;90.14
22753;BME280;11543;43.144;24.684;2024-03-08T01:54:46;99073.13;;;6.73;90.51
22753;BME280;11543;43.144;24.684;2024-03-08T01:57:14;99086.94;;;6.78;90.46
22753;BME280;11543;43.144;24.684;2024-03-08T01:59:40;99071.44;;;6.72;89.88
22753;BME280;11543;43.144;24.684;2024-03-08T02:02:10;99068.31;;;6.67;89.36
22753;BME280;11543;43.144;24.684;2024-03-08T02:04:36;99066.84;;;6.63;89.25
22753;BME280;11543;43.144;24.684;2024-03-08T02:07:09;99055.00;;;6.56;89.29
22753;BME280;11543;43.144;24.684;2024-03-08T02:09:38;99066.63;;;6.55;88.70
22753;BME280;11543;43.144;24.684;2024-03-08T02:12:06;99064.09;;;6.53;88.95
22753;BME280;11543;43.144;24.684;2024-03-08T02:14:37;99056.72;;;6.46;88.85
22753;BME280;11543;43.144;24.684;2024-03-08T02:17:12;99074.88;;;6.52;88.90
22753;BME280;11543;43.144;24.684;2024-03-08T02:19:38;99060.47;;;6.43;89.08
22753;BME280;11543;43.144;24.684;2024-03-08T02:22:07;99077.78;;;6.49;89.06
22753;BME280;11543;43.144;24.684;2024-03-08T02:24:35;99056.25;;;6.41;88.54
22753;BME280;11543;43.144;24.684;2024-03-08T02:27:27;99070.28;;;6.43;88.71
22753;BME280;11543;43.144;24.684;2024-03-08T02:29:55;99096.19;;;6.52;89.12
22753;BME280;11543;43.144;24.684;2024-03-08T02:32:43;99072.47;;;6.37;89.05
22753;BME280;11543;43.144;24.684;2024-03-08T02:35:49;99059.78;;;6.30;89.09
22753;BME280;11543;43.144;24.684;2024-03-08T02:38:32;99053.84;;;6.26;89.05
22753;BME280;11543;43.144;24.684;2024-03-08T02:41:18;99078.06;;;6.34;88.82
22753;BME280;11543;43.144;24.684;2024-03-08T02:43:51;99076.59;;;6.30;89.06
22753;BME280;11543;43.144;24.684;2024-03-08T02:46:17;99099.13;;;6.37;89.58
22753;BME280;11543;43.144;24.684;2024-03-08T02:48:42;99082.41;;;6.24;89.86
22753;BME280;11543;43.144;24.684;2024-03-08T02:51:08;99076.13;;;6.14;90.23
22753;BME280;11543;43.144;24.684;2024-03-08T02:53:38;99086.91;;;6.24;89.92
22753;BME280;11543;43.144;24.684;2024-03-08T02:56:06;99074.19;;;6.16;90.24
22753;BME280;11543;43.144;24.684;2024-03-08T02:58:46;99075.88;;;6.17;90.18
22753;BME280;11543;43.144;24.684;2024-03-08T03:01:28;99061.84;;;6.15;89.91
22753;BME280;11543;43.144;24.684;2024-03-08T03:04:07;99094.53;;;6.28;89.46
22753;BME280;11543;43.144;24.684;2024-03-08T03:06:42;99093.31;;;6.21;89.72
22753;BME280;11543;43.144;24.684;2024-03-08T03:09:11;99095.88;;;6.23;89.98
22753;BME280;11543;43.144;24.684;2024-03-08T03:11:40;99081.69;;;6.22;89.25
22753;BME280;11543;43.144;24.684;2024-03-08T03:14:05;99089.69;;;6.22;89.39
22753;BME280;11543;43.144;24.684;2024-03-08T03:16:32;99083.50;;;6.22;89.09
22753;BME280;11543;43.144;24.684;2024-03-08T03:19:08;99091.38;;;6.23;89.01
22753;BME280;11543;43.144;24.684;2024-03-08T03:21:34;99084.38;;;6.11;89.41
22753;BME280;11543;43.144;24.684;2024-03-08T03:24:03;99106.41;;;6.24;89.68
22753;BME280;11543;43.144;24.684;2024-03-08T03:26:38;99085.09;;;6.13;89.31
22753;BME280;11543;43.144;24.684;2024-03-08T03:29:11;99092.13;;;6.14;89.33
22753;BME280;11543;43.144;24.684;2024-03-08T03:31:37;99108.22;;;6.24;89.29
22753;BME280;11543;43.144;24.684;2024-03-08T03:34:03;99096.34;;;6.17;89.48
22753;BME280;11543;43.144;24.684;2024-03-08T03:36:30;99086.91;;;6.13;88.98
22753;BME280;11543;43.144;24.684;2024-03-08T03:38:55;99084.50;;;6.10;88.61
22753;BME280;11543;43.144;24.684;2024-03-08T03:41:50;99089.28;;;6.04;88.90
22753;BME280;11543;43.144;24.684;2024-03-08T03:44:20;99106.16;;;6.16;89.28
22753;BME280;11543;43.144;24.684;2024-03-08T03:47:05;99105.78;;;6.10;89.39
22753;BME280;11543;43.144;24.684;2024-03-08T03:50:00;99091.13;;;6.04;89.43
22753;BME280;11543;43.144;24.684;2024-03-08T03:53:10;99104.72;;;6.12;90.17
22753;BME280;11543;43.144;24.684;2024-03-08T03:58:32;99096.69;;;6.01;89.67
22753;BME280;11543;43.144;24.684;2024-03-08T04:00:59;99103.69;;;6.02;90.08
22753;BME280;11543;43.144;24.684;2024-03-08T04:03:28;99126.03;;;6.12;89.48
22753;BME280;11543;43.144;24.684;2024-03-08T04:06:03;99128.69;;;6.12;89.10
22753;BME280;11543;43.144;24.684;2024-03-08T04:08:31;99136.19;;;6.18;89.08
22753;BME280;11543;43.144;24.684;2024-03-08T04:11:00;99137.16;;;6.17;89.16
22753;BME280;11543;43.144;24.684;2024-03-08T04:13:28;99125.00;;;6.02;89.47
22753;BME280;11543;43.144;24.684;2024-03-08T04:15:56;99120.41;;;6.04;89.15
22753;BME280;11543;43.144;24.684;2024-03-08T04:18:26;99142.25;;;6.09;89.49
22753;BME280;11543;43.144;24.684;2024-03-08T04:21:02;99149.50;;;6.07;89.42
22753;BME280;11543;43.144;24.684;2024-03-08T04:23:28;99142.25;;;6.09;89.00
22753;BME280;11543;43.144;24.684;2024-03-08T04:26:04;99142.44;;;6.06;89.31
22753;BME280;11543;43.144;24.684;2024-03-08T04:28:40;99154.59;;;6.10;88.89
22753;BME280;11543;43.144;24.684;2024-03-08T04:31:08;99147.16;;;6.02;88.70
22753;BME280;11543;43.144;24.684;2024-03-08T04:33:36;99153.56;;;6.00;89.16
22753;BME280;11543;43.144;24.684;2024-03-08T04:36:02;99151.88;;;5.99;89.01
22753;BME280;11543;43.144;24.684;2024-03-08T04:38:33;99168.88;;;6.09;88.61
22753;BME280;11543;43.144;24.684;2024-03-08T04:41:02;99161.31;;;6.03;88.88
22753;BME280;11543;43.144;24.684;2024-03-08T04:43:28;99153.19;;;5.93;88.29
22753;BME280;11543;43.144;24.684;2024-03-08T04:45:55;99155.25;;;5.90;88.81
22753;BME280;11543;43.144;24.684;2024-03-08T04:48:21;99161.31;;;5.92;89.17
22753;BME280;11543;43.144;24.684;2024-03-08T04:50:46;99159.63;;;5.91;89.40
22753;BME280;11543;43.144;24.684;2024-03-08T04:53:12;99176.81;;;5.98;89.31
22753;BME280;11543;43.144;24.684;2024-03-08T04:55:38;99174.38;;;5.95;88.97
22753;BME280;11543;43.144;24.684;2024-03-08T04:58:03;99142.84;;;5.78;89.00
22753;BME280;11543;43.144;24.684;2024-03-08T05:00:32;99189.28;;;5.97;89.27
22753;BME280;11543;43.144;24.684;2024-03-08T05:02:58;99190.13;;;5.98;89.10
22753;BME280;11543;43.144;24.684;2024-03-08T05:05:24;99169.00;;;5.84;88.82
22753;BME280;11543;43.144;24.684;2024-03-08T05:07:50;99171.06;;;5.80;88.87
22753;BME280;11543;43.144;24.684;2024-03-08T05:10:16;99178.06;;;5.81;88.80
22753;BME280;11543;43.144;24.684;2024-03-08T05:12:44;99181.59;;;5.82;89.14
22753;BME280;11543;43.144;24.684;2024-03-08T05:15:15;99187.75;;;5.82;89.54
22753;BME280;11543;43.144;24.684;2024-03-08T05:17:40;99180.13;;;5.78;89.62
22753;BME280;11543;43.144;24.684;2024-03-08T06:22:24;99264.59;;;5.75;88.82
22753;BME280;11543;43.144;24.684;2024-03-08T06:25:44;99259.38;;;5.74;89.11
22753;BME280;11543;43.144;24.684;2024-03-08T06:28:36;99276.81;;;5.78;89.31
22753;BME280;11543;43.144;24.684;2024-03-08T06:31:26;99264.69;;;5.74;89.49
22753;BME280;11543;43.144;24.684;2024-03-08T06:34:15;99275.75;;;5.81;89.33
22753;BME280;11543;43.144;24.684;2024-03-08T06:37:06;99291.25;;;5.87;89.50
22753;BME280;11543;43.144;24.684;2024-03-08T06:39:50;99268.94;;;5.76;89.29
22753;BME280;11543;43.144;24.684;2024-03-08T06:42:29;99275.13;;;5.77;89.29
22753;BME280;11543;43.144;24.684;2024-03-08T06:45:08;99283.38;;;5.85;89.31
22753;BME280;11543;43.144;24.684;2024-03-08T06:47:40;99270.88;;;5.74;89.51
22753;BME280;11543;43.144;24.684;2024-03-08T06:50:10;99284.00;;;5.89;89.55
22753;BME280;11543;43.144;24.684;2024-03-08T06:52:51;99294.47;;;5.92;88.73
22753;BME280;11543;43.144;24.684;2024-03-08T06:55:21;99285.94;;;5.87;88.93
22753;BME280;11543;43.144;24.684;2024-03-08T06:57:51;99280.09;;;5.82;88.67
22753;BME280;11543;43.144;24.684;2024-03-08T07:00:24;99293.81;;;5.88;88.97
22753;BME280;11543;43.144;24.684;2024-03-08T07:02:54;99292.75;;;5.91;88.51
22753;BME280;11543;43.144;24.684;2024-03-08T07:05:42;99294.78;;;5.87;88.74
22753;BME280;11543;43.144;24.684;2024-03-08T07:08:12;99296.47;;;5.88;89.00
22753;BME280;11543;43.144;24.684;2024-03-08T07:10:40;99296.38;;;5.90;89.20
22753;BME280;11543;43.144;24.684;2024-03-08T07:13:14;99300.22;;;5.86;89.22
22753;BME280;11543;43.144;24.684;2024-03-08T07:15:39;99294.88;;;5.86;89.14
22753;BME280;11543;43.144;24.684;2024-03-08T07:18:05;99300.94;;;5.88;88.90
22753;BME280;11543;43.144;24.684;2024-03-08T07:20:40;99306.06;;;5.91;89.39
22753;BME280;11543;43.144;24.684;2024-03-08T07:23:16;99325.00;;;5.99;89.87
22753;BME280;11543;43.144;24.684;2024-03-08T07:26:04;99310.75;;;5.87;89.33
22753;BME280;11543;43.144;24.684;2024-03-08T07:28:53;99315.53;;;5.95;89.90
22753;BME280;11543;43.144;24.684;2024-03-08T07:31:43;99330.81;;;6.04;89.60
22753;BME280;11543;43.144;24.684;2024-03-08T07:37:23;99310.44;;;5.92;89.84
22753;BME280;11543;43.144;24.684;2024-03-08T07:39:55;99308.50;;;5.94;90.14
22753;BME280;11543;43.144;24.684;2024-03-08T07:42:26;99334.88;;;6.10;89.55
22753;BME280;11543;43.144;24.684;2024-03-08T07:45:07;99323.81;;;6.03;89.97
22753;BME280;11543;43.144;24.684;2024-03-08T07:47:33;99340.19;;;6.10;89.85
22753;BME280;11543;43.144;24.684;2024-03-08T07:50:18;99309.97;;;5.98;90.30
22753;BME280;11543;43.144;24.684;2024-03-08T07:52:56;99325.06;;;6.10;90.72
22753;BME280;11543;43.144;24.684;2024-03-08T07:55:33;99351.78;;;6.32;90.43
22753;BME280;11543;43.144;24.684;2024-03-08T07:58:04;99332.63;;;6.27;90.34
22753;BME280;11543;43.144;24.684;2024-03-08T08:00:38;99329.47;;;6.22;90.43
22753;BME280;11543;43.144;24.684;2024-03-08T08:03:10;99318.94;;;6.21;90.56
22753;BME280;11543;43.144;24.684;2024-03-08T08:05:36;99337.50;;;6.33;90.54
22753;BME280;11543;43.144;24.684;2024-03-08T08:08:16;99344.91;;;6.41;90.58
22753;BME280;11543;43.144;24.684;2024-03-08T08:10:46;99337.50;;;6.33;90.30
22753;BME280;11543;43.144;24.684;2024-03-08T08:13:28;99347.47;;;6.43;90.58
22753;BME280;11543;43.144;24.684;2024-03-08T08:16:06;99325.38;;;6.29;90.49
22753;BME280;11543;43.144;24.684;2024-03-08T08:18:34;99335.56;;;6.35;89.99
22753;BME280;11543;43.144;24.684;2024-03-08T08:23:56;99351.78;;;6.32;89.92
22753;BME280;11543;43.144;24.684;2024-03-08T08:26:26;99329.72;;;6.19;89.63
22753;BME280;11543;43.144;24.684;2024-03-08T08:28:55;99344.50;;;6.23;89.46
22753;BME280;11543;43.144;24.684;2024-03-08T08:31:21;99363.69;;;6.39;89.87
22753;BME280;11543;43.144;24.684;2024-03-08T08:33:49;99343.28;;;6.27;89.88
22753;BME280;11543;43.144;24.684;2024-03-08T08:36:15;99352.53;;;6.34;89.95
22753;BME280;11543;43.144;24.684;2024-03-08T08:38:40;99354.97;;;6.37;89.89
22753;BME280;11543;43.144;24.684;2024-03-08T08:41:09;99364.06;;;6.46;90.29
22753;BME280;11543;43.144;24.684;2024-03-08T08:43:36;99352.41;;;6.36;89.78
22753;BME280;11543;43.144;24.684;2024-03-08T08:46:02;99353.25;;;6.36;89.83
22753;BME280;11543;43.144;24.684;2024-03-08T08:48:28;99353.50;;;6.33;90.15
22753;BME280;11543;43.144;24.684;2024-03-08T08:50:54;99337.97;;;6.27;90.02
22753;BME280;11543;43.144;24.684;2024-03-08T08:53:20;99366.84;;;6.45;90.04
22753;BME280;11543;43.144;24.684;2024-03-08T08:55:49;99336.50;;;6.23;89.60
22753;BME280;11543;43.144;24.684;2024-03-08T08:58:22;99339.78;;;6.27;89.75
22753;BME280;11543;43.144;24.684;2024-03-08T09:00:57;99337.75;;;6.30;89.68
22753;BME280;11543;43.144;24.684;2024-03-08T09:03:22;99367.09;;;6.42;89.86
22753;BME280;11543;43.144;24.684;2024-03-08T09:05:49;99343.69;;;6.34;90.16
22753;BME280;11543;43.144;24.684;2024-03-08T09:08:17;99361.75;;;6.42;90.10
22753;BME280;11543;43.144;24.684;2024-03-08T09:10:42;99349.63;;;6.37;89.88
22753;BME280;11543;43.144;24.684;2024-03-08T09:13:08;99368.56;;;6.46;90.00
22753;BME280;11543;43.144;24.684;2024-03-08T09:15:37;99359.59;;;6.47;89.79
22753;BME280;11543;43.144;24.684;2024-03-08T09:18:06;99360.81;;;6.54;89.89
22753;BME280;11543;43.144;24.684;2024-03-08T09:20:32;99365.06;;;6.56;89.68
22753;BME280;11543;43.144;24.684;2024-03-08T09:22:57;99352.09;;;6.52;90.00
22753;BME280;11543;43.144;24.684;2024-03-08T09:25:23;99360.34;;;6.60;89.87
22753;BME280;11543;43.144;24.684;2024-03-08T09:27:49;99371.41;;;6.66;89.60
22753;BME280;11543;43.144;24.684;2024-03-08T09:30:17;99360.00;;;6.64;89.58
22753;BME280;11543;43.144;24.684;2024-03-08T09:32:43;99361.56;;;6.67;89.87
22753;BME280;11543;43.144;24.684;2024-03-08T09:35:09;99351.38;;;6.61;89.85
22753;BME280;11543;43.144;24.684;2024-03-08T09:37:35;99368.38;;;6.71;89.40
22753;BME280;11543;43.144;24.684;2024-03-08T09:40:00;99364.13;;;6.68;89.53
22753;BME280;11543;43.144;24.684;2024-03-08T09:42:30;99380.50;;;6.75;89.63
22753;BME280;11543;43.144;24.684;2024-03-08T09:44:57;99375.41;;;6.72;89.74
22753;BME280;11543;43.144;24.684;2024-03-08T09:47:33;99361.81;;;6.64;89.77
22753;BME280;11543;43.144;24.684;2024-03-08T09:50:00;99356.72;;;6.61;89.58
22753;BME280;11543;43.144;24.684;2024-03-08T09:52:57;99351.63;;;6.58;89.29
22753;BME280;11543;43.144;24.684;2024-03-08T09:55:26;99350.66;;;6.59;89.60
22753;BME280;11543;43.144;24.684;2024-03-08T09:58:06;99350.41;;;6.62;89.36
22753;BME280;11543;43.144;24.684;2024-03-08T10:00:52;99362.81;;;6.74;89.90
22753;BME280;11543;43.144;24.684;2024-03-08T10:03:19;99381.03;;;6.91;89.82
22753;BME280;11543;43.144;24.684;2024-03-08T10:05:49;99359.25;;;6.97;89.96
22753;BME280;11543;43.144;24.684;2024-03-08T10:08:28;99349.00;;;6.91;89.48
22753;BME280;11543;43.144;24.684;2024-03-08T10:11:01;99357.75;;;6.93;89.17
22753;BME280;11543;43.144;24.684;2024-03-08T10:13:34;99363.72;;;6.97;89.37
22753;BME280;11543;43.144;24.684;2024-03-08T10:16:00;99383.63;;;7.15;89.34
22753;BME280;11543;43.144;24.684;2024-03-08T10:19:01;99351.59;;;7.04;89.33
22753;BME280;11543;43.144;24.684;2024-03-08T10:28:44;99357.53;;;6.96;88.97
22753;BME280;11543;43.144;24.684;2024-03-08T10:31:10;99371.13;;;7.05;89.27
22753;BME280;11543;43.144;24.684;2024-03-08T10:33:36;99375.75;;;7.14;89.11
22753;BME280;11543;43.144;24.684;2024-03-08T10:36:14;99367.25;;;7.09;88.93
22753;BME280;11543;43.144;24.684;2024-03-08T10:38:41;99346.34;;;6.91;88.59
22753;BME280;11543;43.144;24.684;2024-03-08T10:41:40;99354.13;;;6.94;88.62
22753;BME280;11543;43.144;24.684;2024-03-08T10:44:53;99358.75;;;7.03;88.31
22753;BME280;11543;43.144;24.684;2024-03-08T10:47:38;99334.94;;;6.89;88.25
22753;BME280;11543;43.144;24.684;2024-03-08T10:50:19;99351.97;;;6.99;88.72
22753;BME280;11543;43.144;24.684;2024-03-08T10:53:01;99348.44;;;6.99;88.61
22753;BME280;11543;43.144;24.684;2024-03-08T10:55:47;99341.91;;;7.03;89.14
22753;BME280;11543;43.144;24.684;2024-03-08T11:02:00;99346.03;;;7.29;88.80
22753;BME280;11543;43.144;24.684;2024-03-08T11:04:37;99332.06;;;7.26;88.92
22753;BME280;11543;43.144;24.684;2024-03-08T11:07:05;99330.59;;;7.33;88.85
22753;BME280;11543;43.144;24.684;2024-03-08T11:09:42;99335.94;;;7.44;88.50
22753;BME280;11543;43.144;24.684;2024-03-08T11:12:19;99356.31;;;7.56;88.72
22753;BME280;11543;43.144;24.684;2024-03-08T11:14:49;99337.13;;;7.51;88.41
22753;BME280;11543;43.144;24.684;2024-03-08T11:17:20;99343.94;;;7.55;88.89
22753;BME280;11543;43.144;24.684;2024-03-08T11:19:48;99324.28;;;7.45;88.27
22753;BME280;11543;43.144;24.684;2024-03-08T11:22:22;99344.03;;;7.65;88.69
22753;BME280;11543;43.144;24.684;2024-03-08T11:24:49;99346.56;;;7.66;88.24
22753;BME280;11543;43.144;24.684;2024-03-08T11:27:15;99339.78;;;7.62;87.98
22753;BME280;11543;43.144;24.684;2024-03-08T11:29:41;99322.69;;;7.54;88.06
22753;BME280;11543;43.144;24.684;2024-03-08T11:32:15;99336.88;;;7.65;88.39
22753;BME280;11543;43.144;24.684;2024-03-08T11:34:43;99328.00;;;7.65;87.95
22753;BME280;11543;43.144;24.684;2024-03-08T11:37:14;99324.00;;;7.59;87.93
22753;BME280;11543;43.144;24.684;2024-03-08T11:42:14;99331.31;;;7.57;87.79
22753;BME280;11543;43.144;24.684;2024-03-08T11:44:39;99341.38;;;7.54;87.35
22753;BME280;11543;43.144;24.684;2024-03-08T11:47:10;99341.03;;;7.47;87.34
22753;BME280;11543;43.144;24.684;2024-03-08T11:49:36;99332.28;;;7.45;87.36
22753;BME280;11543;43.144;24.684;2024-03-08T11:52:02;99343.81;;;7.46;87.39
22753;BME280;11543;43.144;24.684;2024-03-08T11:54:30;99346.38;;;7.47;87.26
22753;BME280;11543;43.144;24.684;2024-03-08T11:56:59;99343.81;;;7.46;87.02
22753;BME280;11543;43.144;24.684;2024-03-08T11:59:28;99346.50;;;7.46;87.03
22753;BME280;11543;43.144;24.684;2024-03-08T12:02:02;99332.06;;;7.37;87.07
22753;BME280;11543;43.144;24.684;2024-03-08T12:04:29;99322.59;;;7.33;87.47
22753;BME280;11543;43.144;24.684;2024-03-08T12:06:54;99334.00;;;7.46;87.49
22753;BME280;11543;43.144;24.684;2024-03-08T12:09:20;99332.03;;;7.48;87.58
22753;BME280;11543;43.144;24.684;2024-03-08T12:11:50;99336.63;;;7.57;87.97
22753;BME280;11543;43.144;24.684;2024-03-08T12:14:17;99330.06;;;7.61;87.76
22753;BME280;11543;43.144;24.684;2024-03-08T12:16:43;99338.81;;;7.63;87.51
22753;BME280;11543;43.144;24.684;2024-03-08T12:19:10;99339.53;;;7.65;87.21
22753;BME280;11543;43.144;24.684;2024-03-08T12:21:36;99328.00;;;7.65;87.60
22753;BME280;11543;43.144;24.684;2024-03-08T12:24:06;99326.41;;;7.74;87.72
22753;BME280;11543;43.144;24.684;2024-03-08T12:26:37;99321.44;;;7.80;87.19
22753;BME280;11543;43.144;24.684;2024-03-08T12:29:25;99328.53;;;8.02;86.57
22753;BME280;11543;43.144;24.684;2024-03-08T12:31:54;99332.66;;;8.06;86.26
22753;BME280;11543;43.144;24.684;2024-03-08T12:34:20;99326.78;;;8.12;86.10
22753;BME280;11543;43.144;24.684;2024-03-08T12:36:50;99322.69;;;8.08;85.83
22753;BME280;11543;43.144;24.684;2024-03-08T12:39:20;99318.56;;;8.04;85.89
22753;BME280;11543;43.144;24.684;2024-03-08T12:41:54;99333.91;;;8.23;85.82
22753;BME280;11543;43.144;24.684;2024-03-08T12:44:22;99299.22;;;8.12;85.38
22753;BME280;11543;43.144;24.684;2024-03-08T12:46:48;99313.75;;;8.19;85.18
22753;BME280;11543;43.144;24.684;2024-03-08T12:49:14;99315.31;;;8.21;84.87
22753;BME280;11543;43.144;24.684;2024-03-08T12:51:46;99325.25;;;8.30;84.82
22753;BME280;11543;43.144;24.684;2024-03-08T12:54:14;99317.22;;;8.30;84.73
22753;BME280;11543;43.144;24.684;2024-03-08T12:56:40;99306.84;;;8.16;84.66
22753;BME280;11543;43.144;24.684;2024-03-08T12:59:09;99322.84;;;8.27;85.13
22753;BME280;11543;43.144;24.684;2024-03-08T13:01:43;99305.22;;;8.25;84.70
22753;BME280;11543;43.144;24.684;2024-03-08T13:04:18;99341.72;;;8.47;84.65
22753;BME280;11543;43.144;24.684;2024-03-08T13:06:56;99335.84;;;8.53;84.72
22753;BME280;11543;43.144;24.684;2024-03-08T13:09:45;99339.00;;;8.58;84.10
22753;BME280;11543;43.144;24.684;2024-03-08T13:12:11;99327.44;;;8.57;83.88
22753;BME280;11543;43.144;24.684;2024-03-08T13:15:00;99312.06;;;8.50;83.75
22753;BME280;11543;43.144;24.684;2024-03-08T13:17:26;99317.06;;;8.64;83.74
22753;BME280;11543;43.144;24.684;2024-03-08T13:20:05;99323.88;;;8.68;83.14
22753;BME280;11543;43.144;24.684;2024-03-08T13:22:53;99305.19;;;8.57;83.46
22753;BME280;11543;43.144;24.684;2024-03-08T13:25:19;99315.63;;;8.60;83.31
22753;BME280;11543;43.144;24.684;2024-03-08T13:27:54;99303.25;;;8.59;83.08
22753;BME280;11543;43.144;24.684;2024-03-08T13:30:22;99302.13;;;8.61;82.90
22753;BME280;11543;43.144;24.684;2024-03-08T13:32:51;99327.34;;;8.80;83.09
22753;BME280;11543;43.144;24.684;2024-03-08T13:35:23;99318.28;;;8.71;82.88
22753;BME280;11543;43.144;24.684;2024-03-08T13:37:53;99296.47;;;8.55;82.90
22753;BME280;11543;43.144;24.684;2024-03-08T13:40:22;99315.13;;;8.66;83.07
22753;BME280;11543;43.144;24.684;2024-03-08T13:42:50;99305.47;;;8.54;82.88
22753;BME280;11543;43.144;24.684;2024-03-08T13:45:26;99310.81;;;8.54;83.21
22753;BME280;11543;43.144;24.684;2024-03-08T13:47:59;99313.94;;;8.59;83.39
22753;BME280;11543;43.144;24.684;2024-03-08T13:50:24;99323.03;;;8.68;83.01
22753;BME280;11543;43.144;24.684;2024-03-08T13:53:11;99308.06;;;8.65;82.79
22753;BME280;11543;43.144;24.684;2024-03-08T13:55:42;99323.34;;;8.74;82.60
22753;BME280;11543;43.144;24.684;2024-03-08T13:58:10;99318.00;;;8.74;82.61
22753;BME280;11543;43.144;24.684;2024-03-08T14:00:40;99284.34;;;8.51;82.32
22753;BME280;11543;43.144;24.684;2024-03-08T14:03:17;99306.44;;;8.53;82.51
22753;BME280;11543;43.144;24.684;2024-03-08T14:06:21;99298.50;;;8.42;82.81
22753;BME280;11543;43.144;24.684;2024-03-08T14:08:51;99302.00;;;8.42;82.89
22753;BME280;11543;43.144;24.684;2024-03-08T14:11:25;99308.47;;;8.40;83.27
22753;BME280;11543;43.144;24.684;2024-03-08T14:13:53;99316.28;;;8.52;83.27
22753;BME280;11543;43.144;24.684;2024-03-08T14:16:19;99303.13;;;8.40;83.19
22753;BME280;11543;43.144;24.684;2024-03-08T14:18:45;99313.63;;;8.52;82.94
22753;BME280;11543;43.144;24.684;2024-03-08T14:21:11;99317.53;;;8.48;82.96
22753;BME280;11543;43.144;24.684;2024-03-08T14:23:37;99298.03;;;8.37;83.20
22753;BME280;11543;43.144;24.684;2024-03-08T14:26:05;99299.22;;;8.32;83.12
22753;BME280;11543;43.144;24.684;2024-03-08T14:28:32;99286.38;;;8.26;83.28
22753;BME280;11543;43.144;24.684;2024-03-08T14:30:59;99289.91;;;8.27;83.12
22753;BME280;11543;43.144;24.684;2024-03-08T14:33:28;99288.88;;;8.18;83.11
22753;BME280;11543;43.144;24.684;2024-03-08T14:35:54;99295.91;;;8.19;83.40
22753;BME280;11543;43.144;24.684;2024-03-08T14:38:20;99320.88;;;8.29;83.70
22753;BME280;11543;43.144;24.684;2024-03-08T14:40:45;99296.63;;;8.21;83.61
22753;BME280;11543;43.144;24.684;2024-03-08T14:43:12;99309.22;;;8.30;83.53
22753;BME280;11543;43.144;24.684;2024-03-08T14:45:42;99293.69;;;8.24;83.53
22753;BME280;11543;43.144;24.684;2024-03-08T14:48:08;99288.34;;;8.24;83.41
22753;BME280;11543;43.144;24.684;2024-03-08T14:50:33;99308.47;;;8.40;83.03
22753;BME280;11543;43.144;24.684;2024-03-08T14:52:59;99302.66;;;8.35;82.91
22753;BME280;11543;43.144;24.684;2024-03-08T14:55:26;99299.88;;;8.25;82.66
22753;BME280;11543;43.144;24.684;2024-03-08T14:57:52;99300.16;;;8.22;83.09
22753;BME280;11543;43.144;24.684;2024-03-08T15:00:20;99313.97;;;8.27;82.93